createdAt,value
2022-08-04T00:00:53.658Z,28.31
2022-08-04T00:01:53.762Z,28.37
2022-08-04T00:02:53.663Z,28.33
2022-08-04T00:03:55.631Z,28.27
2022-08-04T00:04:53.663Z,28.33
2022-08-04T00:05:53.698Z,28.34
2022-08-04T00:06:53.675Z,28.33
2022-08-04T00:07:53.671Z,28.36
2022-08-04T00:08:55.653Z,28.25
2022-08-04T00:09:53.669Z,28.39
2022-08-04T00:10:53.670Z,28.25
2022-08-04T00:11:53.733Z,28.41
2022-08-04T00:12:53.671Z,28.30
2022-08-04T00:14:02.468Z,28.37
2022-08-04T00:14:53.675Z,28.33
2022-08-04T00:15:53.676Z,28.33
2022-08-04T00:16:53.675Z,28.37
2022-08-04T00:17:53.678Z,28.31
2022-08-04T00:18:53.678Z,28.30
2022-08-04T00:19:53.681Z,28.37
2022-08-04T00:20:53.680Z,28.27
2022-08-04T00:21:53.683Z,28.36
2022-08-04T00:22:53.691Z,28.31
2022-08-04T00:24:11.382Z,28.30
2022-08-04T00:24:53.686Z,28.27
2022-08-04T00:25:53.688Z,28.29
2022-08-04T00:26:53.689Z,28.30
2022-08-04T00:27:53.689Z,28.29
2022-08-04T00:28:53.690Z,28.30
2022-08-04T00:29:53.692Z,28.29
2022-08-04T00:30:53.694Z,28.31
2022-08-04T00:31:57.364Z,28.27
2022-08-04T00:32:53.696Z,28.31
2022-08-04T00:33:53.695Z,28.31
2022-08-04T00:34:53.696Z,28.31
2022-08-04T00:35:53.699Z,28.34
2022-08-04T00:36:53.698Z,28.33
2022-08-04T00:37:53.701Z,28.33
2022-08-04T00:38:53.737Z,28.34
2022-08-04T00:39:53.702Z,28.34
2022-08-04T00:40:53.704Z,28.27
2022-08-04T00:41:57.157Z,28.31
2022-08-04T00:42:58.997Z,28.30
2022-08-04T00:43:53.707Z,28.34
2022-08-04T00:44:53.707Z,28.29
2022-08-04T00:46:15.358Z,28.27
2022-08-04T00:46:53.709Z,28.37
2022-08-04T00:47:53.710Z,28.34
2022-08-04T00:48:53.710Z,28.34
2022-08-04T00:49:53.713Z,28.34
2022-08-04T00:50:53.714Z,28.33
2022-08-04T00:52:32.120Z,28.25
2022-08-04T00:52:53.715Z,28.29
2022-08-04T00:53:53.717Z,28.33
2022-08-04T00:54:53.718Z,28.34
2022-08-04T00:55:53.721Z,28.25
2022-08-04T00:56:53.718Z,28.33
2022-08-04T00:57:53.721Z,28.27
2022-08-04T00:58:53.723Z,28.33
2022-08-04T00:59:53.728Z,28.31
2022-08-04T01:00:53.723Z,28.29
2022-08-04T01:01:53.818Z,28.34
2022-08-04T01:02:53.726Z,28.27
2022-08-04T01:03:53.729Z,28.33
2022-08-04T01:04:53.727Z,28.24
2022-08-04T01:05:53.731Z,28.29
2022-08-04T01:06:56.519Z,28.29
2022-08-04T01:07:53.733Z,28.29
2022-08-04T01:08:53.754Z,28.31
2022-08-04T01:09:53.735Z,28.30
2022-08-04T01:10:53.735Z,28.27
2022-08-04T01:11:57.165Z,28.39
2022-08-04T01:12:53.737Z,28.30
2022-08-04T01:13:53.738Z,28.31
2022-08-04T01:14:53.739Z,28.31
2022-08-04T01:16:00.308Z,28.29
2022-08-04T01:16:53.741Z,28.36
2022-08-04T01:17:53.744Z,28.31
2022-08-04T01:18:53.744Z,28.34
2022-08-04T01:19:53.745Z,28.30
2022-08-04T01:20:53.745Z,28.31
2022-08-04T01:21:53.746Z,28.31
2022-08-04T01:22:53.747Z,28.27
2022-08-04T01:23:53.750Z,28.27
2022-08-04T01:24:53.750Z,28.24
2022-08-04T01:25:53.751Z,28.34
2022-08-04T01:26:57.985Z,28.31
2022-08-04T01:27:53.755Z,28.27
2022-08-04T01:28:53.754Z,28.31
2022-08-04T01:29:55.679Z,28.27
2022-08-04T01:30:53.756Z,28.30
2022-08-04T01:31:53.762Z,28.30
2022-08-04T01:32:53.758Z,28.27
2022-08-04T01:34:03.897Z,28.30
2022-08-04T01:34:53.761Z,28.29
2022-08-04T01:35:53.763Z,28.29
2022-08-04T01:36:53.796Z,28.34
2022-08-04T01:37:53.766Z,28.34
2022-08-04T01:38:53.816Z,28.27
2022-08-04T01:39:53.767Z,28.37
2022-08-04T01:40:53.773Z,28.34
2022-08-04T01:41:58.176Z,28.30
2022-08-04T01:42:53.772Z,28.29
2022-08-04T01:43:53.772Z,28.33
2022-08-04T01:44:53.769Z,28.34
2022-08-04T01:45:53.774Z,28.29
2022-08-04T01:46:53.773Z,28.24
2022-08-04T01:47:53.777Z,28.31
2022-08-04T01:48:53.775Z,28.25
2022-08-04T01:49:53.776Z,28.33
2022-08-04T01:50:53.779Z,28.34
2022-08-04T01:51:53.781Z,28.30
2022-08-04T01:52:53.778Z,28.37
2022-08-04T01:53:53.784Z,28.34
2022-08-04T01:54:53.782Z,28.36
2022-08-04T01:55:55.519Z,28.29
2022-08-04T01:56:53.783Z,28.34
2022-08-04T01:57:53.885Z,28.34
2022-08-04T01:58:53.786Z,28.25
2022-08-04T01:59:53.810Z,28.29
2022-08-04T02:00:56.475Z,28.36
2022-08-04T02:01:53.898Z,28.29
2022-08-04T02:02:53.864Z,28.31
2022-08-04T02:04:19.947Z,28.29
2022-08-04T02:04:53.797Z,28.31
2022-08-04T02:06:02.495Z,28.25
2022-08-04T02:06:53.795Z,28.31
2022-08-04T02:07:53.798Z,28.30
2022-08-04T02:08:53.795Z,28.33
2022-08-04T02:09:55.295Z,28.30
2022-08-04T02:10:53.799Z,28.25
2022-08-04T02:11:53.801Z,28.30
2022-08-04T02:12:53.801Z,28.33
2022-08-04T02:13:53.802Z,28.30
2022-08-04T02:14:53.803Z,28.29
2022-08-04T02:15:53.804Z,28.29
2022-08-04T02:16:53.808Z,28.31
2022-08-04T02:17:53.807Z,28.22
2022-08-04T02:18:53.806Z,28.31
2022-08-04T02:19:53.811Z,28.31
2022-08-04T02:20:53.808Z,28.29
2022-08-04T02:21:53.810Z,28.33
2022-08-04T02:22:53.811Z,28.29
2022-08-04T02:23:53.813Z,28.29
2022-08-04T02:24:53.812Z,28.25
2022-08-04T02:25:53.814Z,28.29
2022-08-04T02:26:53.814Z,28.31
2022-08-04T02:27:59.871Z,28.25
2022-08-04T02:28:53.817Z,28.25
2022-08-04T02:29:53.818Z,28.24
2022-08-04T02:30:53.820Z,28.25
2022-08-04T02:31:53.822Z,28.29
2022-08-04T02:32:53.820Z,28.24
2022-08-04T02:33:53.822Z,28.30
2022-08-04T02:34:53.824Z,28.19
2022-08-04T02:35:53.827Z,28.33
2022-08-04T02:36:53.826Z,28.31
2022-08-04T02:37:53.828Z,28.29
2022-08-04T02:38:53.867Z,28.29
2022-08-04T02:39:53.884Z,28.25
2022-08-04T02:40:53.829Z,28.31
2022-08-04T02:41:53.832Z,28.30
2022-08-04T02:42:53.832Z,28.30
2022-08-04T02:43:53.834Z,28.29
2022-08-04T02:44:53.834Z,28.25
2022-08-04T02:45:53.837Z,28.34
2022-08-04T02:46:53.836Z,28.33
2022-08-04T02:48:08.297Z,28.29
2022-08-04T02:48:53.837Z,28.29
2022-08-04T02:49:53.840Z,28.31
2022-08-04T02:50:53.841Z,28.22
2022-08-04T02:51:53.842Z,28.29
2022-08-04T02:52:53.842Z,28.29
2022-08-04T02:53:53.844Z,28.29
2022-08-04T02:54:53.844Z,28.31
2022-08-04T02:55:56.556Z,28.27
2022-08-04T02:56:53.847Z,28.29
2022-08-04T02:57:53.849Z,28.29
2022-08-04T02:58:53.848Z,28.21
2022-08-04T02:59:53.852Z,28.27
2022-08-04T03:00:53.886Z,28.24
2022-08-04T03:01:57.030Z,28.25
2022-08-04T03:02:53.852Z,28.29
2022-08-04T03:03:53.855Z,28.30
2022-08-04T03:04:53.854Z,28.29
2022-08-04T03:06:01.526Z,28.31
2022-08-04T03:06:53.858Z,28.21
2022-08-04T03:07:53.860Z,28.24
2022-08-04T03:08:53.859Z,28.30
2022-08-04T03:09:53.860Z,28.25
2022-08-04T03:10:53.862Z,28.27
2022-08-04T03:11:53.862Z,28.24
2022-08-04T03:12:53.863Z,28.22
2022-08-04T03:13:53.867Z,28.25
2022-08-04T03:14:53.866Z,28.25
2022-08-04T03:15:53.867Z,28.22
2022-08-04T03:16:53.868Z,28.27
2022-08-04T03:17:53.869Z,28.29
2022-08-04T03:18:53.870Z,28.24
2022-08-04T03:19:53.871Z,28.25
2022-08-04T03:20:53.871Z,28.24
2022-08-04T03:21:53.873Z,28.27
2022-08-04T03:23:11.924Z,28.30
2022-08-04T03:23:53.875Z,28.31
2022-08-04T03:24:53.875Z,28.25
2022-08-04T03:25:56.504Z,28.24
2022-08-04T03:26:53.877Z,28.24
2022-08-04T03:27:53.881Z,28.22
2022-08-04T03:28:53.879Z,28.22
2022-08-04T03:29:53.882Z,28.24
2022-08-04T03:30:53.883Z,28.27
2022-08-04T03:31:53.889Z,28.29
2022-08-04T03:32:53.883Z,28.21
2022-08-04T03:33:53.885Z,28.30
2022-08-04T03:34:53.886Z,28.29
2022-08-04T03:35:53.889Z,28.22
2022-08-04T03:36:53.889Z,28.30
2022-08-04T03:37:53.889Z,28.29
2022-08-04T03:38:57.051Z,28.31
2022-08-04T03:39:53.894Z,28.22
2022-08-04T03:40:53.892Z,28.22
2022-08-04T03:42:03.670Z,28.24
2022-08-04T03:42:53.895Z,28.22
2022-08-04T03:43:56.836Z,28.25
2022-08-04T03:44:53.898Z,28.19
2022-08-04T03:45:53.899Z,28.22
2022-08-04T03:46:53.898Z,28.19
2022-08-04T03:47:53.903Z,28.24
2022-08-04T03:48:53.900Z,28.29
2022-08-04T03:49:53.904Z,28.25
2022-08-04T03:50:53.902Z,28.25
2022-08-04T03:51:53.905Z,28.29
2022-08-04T03:52:53.904Z,28.22
2022-08-04T03:53:53.907Z,28.31
2022-08-04T03:54:53.906Z,28.24
2022-08-04T03:55:53.909Z,28.22
2022-08-04T03:56:53.908Z,28.24
2022-08-04T03:57:53.910Z,28.22
2022-08-04T03:58:53.913Z,28.29
2022-08-04T03:59:53.913Z,28.25
2022-08-04T04:00:53.913Z,28.27
2022-08-04T04:02:02.773Z,28.24
2022-08-04T04:02:54.007Z,28.21
2022-08-04T04:03:53.917Z,28.27
2022-08-04T04:04:55.036Z,28.30
2022-08-04T04:06:00.329Z,28.24
2022-08-04T04:06:54.422Z,28.19
2022-08-04T04:07:58.268Z,28.29
2022-08-04T04:08:53.925Z,28.24
2022-08-04T04:09:57.934Z,28.24
2022-08-04T04:10:53.924Z,28.19
2022-08-04T04:11:57.669Z,28.27
2022-08-04T04:12:53.925Z,28.22
2022-08-04T04:13:53.926Z,28.27
2022-08-04T04:14:53.929Z,28.25
2022-08-04T04:15:53.929Z,28.21
2022-08-04T04:16:53.929Z,28.24
2022-08-04T04:17:53.931Z,28.22
2022-08-04T04:18:53.932Z,28.31
2022-08-04T04:19:58.283Z,28.31
2022-08-04T04:20:53.935Z,28.31
2022-08-04T04:21:53.934Z,28.24
2022-08-04T04:22:53.936Z,28.24
2022-08-04T04:23:53.937Z,28.22
2022-08-04T04:24:53.938Z,28.22
2022-08-04T04:25:53.939Z,28.22
2022-08-04T04:26:53.942Z,28.25
2022-08-04T04:27:53.940Z,28.21
2022-08-04T04:28:53.943Z,28.19
2022-08-04T04:29:53.944Z,28.21
2022-08-04T04:30:53.945Z,28.22
2022-08-04T04:31:53.945Z,28.25
2022-08-04T04:32:53.951Z,28.24
2022-08-04T04:33:53.947Z,28.24
2022-08-04T04:34:53.948Z,28.21
2022-08-04T04:35:53.950Z,28.22
2022-08-04T04:36:53.951Z,28.17
2022-08-04T04:37:53.951Z,28.27
2022-08-04T04:38:53.998Z,28.17
2022-08-04T04:39:53.953Z,28.21
2022-08-04T04:40:53.957Z,28.24
2022-08-04T04:41:53.957Z,28.21
2022-08-04T04:42:53.957Z,28.24
2022-08-04T04:43:53.958Z,28.24
2022-08-04T04:44:53.959Z,28.19
2022-08-04T04:45:53.957Z,28.22
2022-08-04T04:46:53.961Z,28.19
2022-08-04T04:48:09.531Z,28.18
2022-08-04T04:48:53.962Z,28.18
2022-08-04T04:49:53.970Z,28.25
2022-08-04T04:50:53.968Z,28.24
2022-08-04T04:51:53.964Z,28.18
2022-08-04T04:52:53.966Z,28.22
2022-08-04T04:54:00.527Z,28.25
2022-08-04T04:54:53.970Z,28.21
2022-08-04T04:55:53.971Z,28.21
2022-08-04T04:56:53.970Z,28.18
2022-08-04T04:57:55.384Z,28.25
2022-08-04T04:58:53.973Z,28.22
2022-08-04T04:59:53.974Z,28.22
2022-08-04T05:00:53.974Z,28.21
2022-08-04T05:01:53.975Z,28.14
2022-08-04T05:02:56.500Z,28.19
2022-08-04T05:03:53.978Z,28.19
2022-08-04T05:04:53.978Z,28.22
2022-08-04T05:05:53.979Z,28.17
2022-08-04T05:06:54.604Z,28.24
2022-08-04T05:07:53.982Z,28.24
2022-08-04T05:08:54.626Z,28.25
2022-08-04T05:09:53.983Z,28.21
2022-08-04T05:10:53.986Z,28.21
2022-08-04T05:11:55.106Z,28.17
2022-08-04T05:14:31.884Z,28.24
2022-08-04T05:14:34.617Z,28.19
2022-08-04T05:14:53.988Z,28.25
2022-08-04T05:15:53.989Z,28.25
2022-08-04T05:16:53.992Z,28.19
2022-08-04T05:17:53.995Z,28.22
2022-08-04T05:18:53.993Z,28.22
2022-08-04T05:19:53.993Z,28.19
2022-08-04T05:20:53.995Z,28.24
2022-08-04T05:21:53.994Z,28.25
2022-08-04T05:22:53.997Z,28.17
2022-08-04T05:23:53.998Z,28.25
2022-08-04T05:24:53.999Z,28.25
2022-08-04T05:25:58.935Z,28.18
2022-08-04T05:26:54.001Z,28.21
2022-08-04T05:27:54.002Z,28.21
2022-08-04T05:28:54.005Z,28.17
2022-08-04T05:29:54.004Z,28.19
2022-08-04T05:30:54.006Z,28.19
2022-08-04T05:31:54.006Z,28.15
2022-08-04T05:32:54.062Z,28.21
2022-08-04T05:33:54.009Z,28.19
2022-08-04T05:34:54.009Z,28.18
2022-08-04T05:36:17.885Z,28.19
2022-08-04T05:36:54.011Z,28.19
2022-08-04T05:38:01.340Z,28.18
2022-08-04T05:38:54.049Z,28.12
2022-08-04T05:39:54.014Z,28.19
2022-08-04T05:40:54.015Z,28.22
2022-08-04T05:41:55.632Z,28.19
2022-08-04T05:42:54.017Z,28.18
2022-08-04T05:43:54.017Z,28.22
2022-08-04T05:44:54.020Z,28.22
2022-08-04T05:45:54.018Z,28.15
2022-08-04T05:46:54.782Z,28.22
2022-08-04T05:47:54.022Z,28.22
2022-08-04T05:48:54.022Z,28.30
2022-08-04T05:50:02.273Z,28.21
2022-08-04T05:50:57.693Z,28.22
2022-08-04T05:51:54.026Z,28.22
2022-08-04T05:52:54.026Z,28.21
2022-08-04T05:53:54.028Z,28.21
2022-08-04T05:54:54.030Z,28.18
2022-08-04T05:55:58.759Z,28.14
2022-08-04T05:56:54.030Z,28.25
2022-08-04T05:57:55.726Z,28.24
2022-08-04T05:58:54.033Z,28.19
2022-08-04T05:59:54.033Z,28.18
2022-08-04T06:00:54.054Z,28.24
2022-08-04T06:01:56.308Z,28.24
2022-08-04T06:02:54.036Z,28.22
2022-08-04T06:03:54.037Z,28.24
2022-08-04T06:04:54.044Z,28.15
2022-08-04T06:05:54.040Z,28.22
2022-08-04T06:06:54.042Z,28.22
2022-08-04T06:08:12.140Z,28.22
2022-08-04T06:08:54.042Z,28.17
2022-08-04T06:09:54.043Z,28.19
2022-08-04T06:10:54.046Z,28.24
2022-08-04T06:12:00.194Z,28.22
2022-08-04T06:12:54.048Z,28.19
2022-08-04T06:13:54.047Z,28.24
2022-08-04T06:14:54.048Z,28.21
2022-08-04T06:15:54.052Z,28.25
2022-08-04T06:16:54.065Z,28.14
2022-08-04T06:18:34.031Z,28.15
2022-08-04T06:19:58.986Z,28.19
2022-08-04T06:20:00.446Z,28.15
2022-08-04T06:20:54.060Z,28.19
2022-08-04T06:21:54.054Z,28.14
2022-08-04T06:22:54.061Z,28.19
2022-08-04T06:24:02.354Z,28.15
2022-08-04T06:24:54.059Z,28.15
2022-08-04T06:25:54.060Z,28.14
2022-08-04T06:26:54.061Z,28.14
2022-08-04T06:27:54.061Z,28.17
2022-08-04T06:28:54.063Z,28.21
2022-08-04T06:29:54.065Z,28.18
2022-08-04T06:30:54.066Z,28.14
2022-08-04T06:32:30.487Z,28.18
2022-08-04T06:32:54.067Z,28.18
2022-08-04T06:33:55.236Z,28.18
2022-08-04T06:34:54.070Z,28.17
2022-08-04T06:35:54.071Z,28.18
2022-08-04T06:36:54.073Z,28.21
2022-08-04T06:37:57.763Z,28.09
2022-08-04T06:38:59.189Z,28.12
2022-08-04T06:39:54.073Z,28.12
2022-08-04T06:40:54.078Z,28.15
2022-08-04T06:42:01.920Z,28.25
2022-08-04T06:42:54.077Z,28.11
2022-08-04T06:43:54.089Z,28.19
2022-08-04T06:44:54.081Z,28.11
2022-08-04T06:45:54.079Z,28.14
2022-08-04T06:46:54.081Z,28.19
2022-08-04T06:47:54.083Z,28.11
2022-08-04T06:48:54.086Z,28.22
2022-08-04T06:51:26.165Z,28.17
2022-08-04T06:51:27.572Z,28.17
2022-08-04T06:51:54.087Z,28.12
2022-08-04T06:52:54.089Z,28.19
2022-08-04T06:53:54.088Z,28.09
2022-08-04T06:54:54.100Z,28.19
2022-08-04T06:55:54.092Z,28.09
2022-08-04T06:56:54.092Z,28.07
2022-08-04T06:57:54.093Z,28.15
2022-08-04T06:58:54.094Z,28.12
2022-08-04T06:59:54.093Z,28.25
2022-08-04T07:00:54.096Z,28.24
2022-08-04T07:01:54.208Z,28.11
2022-08-04T07:02:54.101Z,28.15
2022-08-04T07:03:54.100Z,28.09
2022-08-04T07:04:54.101Z,28.22
2022-08-04T07:05:54.100Z,28.11
2022-08-04T07:06:54.103Z,28.24
2022-08-04T07:07:58.275Z,28.19
2022-08-04T07:08:54.103Z,28.18
2022-08-04T07:09:54.104Z,28.19
2022-08-04T07:10:54.106Z,28.18
2022-08-04T07:11:54.107Z,28.22
2022-08-04T07:12:54.110Z,28.12
2022-08-04T07:13:54.109Z,28.22
2022-08-04T07:14:54.111Z,28.22
2022-08-04T07:15:54.110Z,28.25
2022-08-04T07:16:54.115Z,28.22
2022-08-04T07:17:54.113Z,28.18
2022-08-04T07:18:54.126Z,28.15
2022-08-04T07:19:54.114Z,28.18
2022-08-04T07:20:54.116Z,28.17
2022-08-04T07:22:16.441Z,28.17
2022-08-04T07:22:54.119Z,28.15
2022-08-04T07:23:54.119Z,28.15
2022-08-04T07:24:54.122Z,28.17
2022-08-04T07:26:00.705Z,28.24
2022-08-04T07:26:54.124Z,28.18
2022-08-04T07:27:54.124Z,28.17
2022-08-04T07:28:54.125Z,28.19
2022-08-04T07:29:54.124Z,28.25
2022-08-04T07:30:54.144Z,28.24
2022-08-04T07:31:54.126Z,28.21
2022-08-04T07:32:54.128Z,28.17
2022-08-04T07:34:16.884Z,28.19
2022-08-04T07:34:54.131Z,28.17
2022-08-04T07:36:09.948Z,28.15
2022-08-04T07:36:55.322Z,28.19
2022-08-04T07:37:54.137Z,28.27
2022-08-04T07:38:54.194Z,28.24
2022-08-04T07:39:54.181Z,28.17
2022-08-04T07:40:54.141Z,28.24
2022-08-04T07:41:54.139Z,28.27
2022-08-04T07:42:54.141Z,28.25
2022-08-04T07:43:54.141Z,28.24
2022-08-04T07:44:54.142Z,28.24
2022-08-04T07:45:54.142Z,28.22
2022-08-04T07:46:54.143Z,28.22
2022-08-04T07:48:04.708Z,28.24
2022-08-04T07:48:54.145Z,28.25
2022-08-04T07:49:56.937Z,28.25
2022-08-04T07:50:54.147Z,28.19
2022-08-04T07:51:54.149Z,28.21
2022-08-04T07:53:15.360Z,28.22
2022-08-04T07:53:56.391Z,28.24
2022-08-04T07:54:54.154Z,28.17
2022-08-04T07:55:54.153Z,28.24
2022-08-04T07:56:54.154Z,28.22
2022-08-04T07:57:54.155Z,28.19
2022-08-04T07:58:54.159Z,28.24
2022-08-04T07:59:54.157Z,28.22
2022-08-04T08:00:54.157Z,28.24
2022-08-04T08:01:54.160Z,28.21
2022-08-04T08:02:54.164Z,28.22
2022-08-04T08:03:54.305Z,28.27
2022-08-04T08:04:54.364Z,28.25
2022-08-04T08:06:16.519Z,28.21
2022-08-04T08:06:54.165Z,28.19
2022-08-04T08:07:54.977Z,28.31
2022-08-04T08:08:54.167Z,28.24
2022-08-04T08:09:54.167Z,28.25
2022-08-04T08:10:54.169Z,28.27
2022-08-04T08:12:37.143Z,28.27
2022-08-04T08:12:54.177Z,28.18
2022-08-04T08:13:54.172Z,28.25
2022-08-04T08:14:54.189Z,28.22
2022-08-04T08:15:54.176Z,28.18
2022-08-04T08:16:54.177Z,28.24
2022-08-04T08:17:57.710Z,28.31
2022-08-04T08:18:54.179Z,28.27
2022-08-04T08:19:54.179Z,28.25
2022-08-04T08:20:54.183Z,28.18
2022-08-04T08:21:59.282Z,28.30
2022-08-04T08:22:54.183Z,28.21
2022-08-04T08:23:54.188Z,28.27
2022-08-04T08:24:54.183Z,28.25
2022-08-04T08:25:54.186Z,28.27
2022-08-04T08:26:54.187Z,28.21
2022-08-04T08:27:56.125Z,28.21
2022-08-04T08:28:54.192Z,28.24
2022-08-04T08:29:54.189Z,28.27
2022-08-04T08:30:54.190Z,28.29
2022-08-04T08:31:55.941Z,28.19
2022-08-04T08:32:54.192Z,28.27
2022-08-04T08:33:54.197Z,28.22
2022-08-04T08:34:54.195Z,28.25
2022-08-04T08:35:54.940Z,28.24
2022-08-04T08:36:54.197Z,28.29
2022-08-04T08:37:54.199Z,28.22
2022-08-04T08:38:54.235Z,28.22
2022-08-04T08:39:54.203Z,28.29
2022-08-04T08:40:54.201Z,28.30
2022-08-04T08:41:54.203Z,28.25
2022-08-04T08:42:54.204Z,28.29
2022-08-04T08:44:04.375Z,28.27
2022-08-04T08:44:57.799Z,28.30
2022-08-04T08:45:54.208Z,28.25
2022-08-04T08:46:54.207Z,28.22
2022-08-04T08:48:05.078Z,28.29
2022-08-04T08:48:54.210Z,28.31
2022-08-04T08:50:03.032Z,28.31
2022-08-04T08:50:54.213Z,28.22
2022-08-04T08:51:54.214Z,28.30
2022-08-04T08:53:00.970Z,28.33
2022-08-04T08:53:54.217Z,28.31
2022-08-04T08:54:54.217Z,28.30
2022-08-04T08:55:54.218Z,28.31
2022-08-04T08:56:54.218Z,28.30
2022-08-04T08:58:00.010Z,28.34
2022-08-04T08:58:54.222Z,28.31
2022-08-04T08:59:54.223Z,28.33
2022-08-04T09:00:54.223Z,28.33
2022-08-04T09:01:54.268Z,28.30
2022-08-04T09:03:04.559Z,28.36
2022-08-04T09:03:54.228Z,28.30
2022-08-04T09:04:54.229Z,28.29
2022-08-04T09:05:54.230Z,28.30
2022-08-04T09:06:54.232Z,28.31
2022-08-04T09:07:54.234Z,28.31
2022-08-04T09:08:54.232Z,28.33
2022-08-04T09:09:54.236Z,28.29
2022-08-04T09:10:54.236Z,28.25
2022-08-04T09:11:54.238Z,28.36
2022-08-04T09:12:54.237Z,28.34
2022-08-04T09:13:54.238Z,28.27
2022-08-04T09:14:54.242Z,28.36
2022-08-04T09:15:54.559Z,28.29
2022-08-04T09:16:54.250Z,28.31
2022-08-04T09:17:54.243Z,28.29
2022-08-04T09:18:54.244Z,28.33
2022-08-04T09:19:54.251Z,28.37
2022-08-04T09:20:54.246Z,28.39
2022-08-04T09:21:54.249Z,28.31
2022-08-04T09:22:54.247Z,28.25
2022-08-04T09:23:54.251Z,28.24
2022-08-04T09:24:54.251Z,28.36
2022-08-04T09:25:54.253Z,28.25
2022-08-04T09:27:00.050Z,28.34
2022-08-04T09:27:54.256Z,28.43
2022-08-04T09:28:54.920Z,28.34
2022-08-04T09:29:54.260Z,28.40
2022-08-04T09:30:54.258Z,28.34
2022-08-04T09:32:06.864Z,28.34
2022-08-04T09:32:54.259Z,28.36
2022-08-04T09:33:54.262Z,28.34
2022-08-04T09:35:03.220Z,28.41
2022-08-04T09:35:54.264Z,28.41
2022-08-04T09:36:54.264Z,28.31
2022-08-04T09:37:54.267Z,28.40
2022-08-04T09:38:54.299Z,28.43
2022-08-04T09:39:54.269Z,28.43
2022-08-04T09:40:57.159Z,28.40
2022-08-04T09:41:54.271Z,28.37
2022-08-04T09:42:54.272Z,28.39
2022-08-04T09:43:59.319Z,28.44
2022-08-04T09:45:01.606Z,28.43
2022-08-04T09:45:54.275Z,28.43
2022-08-04T09:46:54.278Z,28.40
2022-08-04T09:47:54.280Z,28.37
2022-08-04T09:48:54.278Z,28.37
2022-08-04T09:49:54.280Z,28.39
2022-08-04T09:50:54.281Z,28.40
2022-08-04T09:51:57.597Z,28.39
2022-08-04T09:52:54.284Z,28.41
2022-08-04T09:53:54.286Z,28.37
2022-08-04T09:54:54.286Z,28.40
2022-08-04T09:55:56.398Z,28.41
2022-08-04T09:56:54.288Z,28.36
2022-08-04T09:57:54.290Z,28.34
2022-08-04T09:58:54.290Z,28.39
2022-08-04T09:59:54.293Z,28.44
2022-08-04T10:00:54.292Z,28.39
2022-08-04T10:01:58.845Z,28.44
2022-08-04T10:02:54.323Z,28.48
2022-08-04T10:03:54.296Z,28.41
2022-08-04T10:04:54.298Z,28.48
2022-08-04T10:05:54.299Z,28.49
2022-08-04T10:06:54.299Z,28.43
2022-08-04T10:08:15.043Z,28.40
2022-08-04T10:08:57.198Z,28.40
2022-08-04T10:09:54.305Z,28.44
2022-08-04T10:10:54.305Z,28.52
2022-08-04T10:11:56.463Z,28.44
2022-08-04T10:12:54.306Z,28.44
2022-08-04T10:13:54.308Z,28.46
2022-08-04T10:14:54.308Z,28.44
2022-08-04T10:15:54.311Z,28.44
2022-08-04T10:16:54.311Z,28.55
2022-08-04T10:17:54.315Z,28.58
2022-08-04T10:18:54.314Z,28.49
2022-08-04T10:19:54.317Z,28.55
2022-08-04T10:20:58.260Z,28.52
2022-08-04T10:21:59.654Z,28.49
2022-08-04T10:23:10.450Z,28.56
2022-08-04T10:23:56.076Z,28.55
2022-08-04T10:24:54.320Z,28.44
2022-08-04T10:26:06.936Z,28.56
2022-08-04T10:26:57.485Z,28.59
2022-08-04T10:27:54.326Z,28.43
2022-08-04T10:28:54.326Z,28.58
2022-08-04T10:29:54.329Z,28.52
2022-08-04T10:30:54.329Z,28.52
2022-08-04T10:31:54.332Z,28.51
2022-08-04T10:32:54.329Z,28.51
2022-08-04T10:33:54.333Z,28.52
2022-08-04T10:34:54.334Z,28.54
2022-08-04T10:35:54.335Z,28.54
2022-08-04T10:36:54.336Z,28.61
2022-08-04T10:38:01.007Z,28.54
2022-08-04T10:38:54.426Z,28.51
2022-08-04T10:39:54.396Z,28.58
2022-08-04T10:40:54.340Z,28.59
2022-08-04T10:41:54.343Z,28.62
2022-08-04T10:42:54.344Z,28.58
2022-08-04T10:43:54.345Z,28.59
2022-08-04T10:44:57.653Z,28.56
2022-08-04T10:45:57.783Z,28.55
2022-08-04T10:46:54.349Z,28.51
2022-08-04T10:47:54.351Z,28.55
2022-08-04T10:48:54.349Z,28.54
2022-08-04T10:49:54.351Z,28.58
2022-08-04T10:50:57.252Z,28.59
2022-08-04T10:51:58.572Z,28.56
2022-08-04T10:52:54.356Z,28.51
2022-08-04T10:53:54.358Z,28.58
2022-08-04T10:54:54.359Z,28.58
2022-08-04T10:56:06.874Z,28.59
2022-08-04T10:56:56.892Z,28.66
2022-08-04T10:57:54.363Z,28.64
2022-08-04T10:58:54.364Z,28.61
2022-08-04T11:00:00.702Z,28.59
2022-08-04T11:00:54.366Z,28.58
2022-08-04T11:02:02.498Z,28.61
2022-08-04T11:02:54.436Z,28.52
2022-08-04T11:03:54.371Z,28.62
2022-08-04T11:04:54.370Z,28.56
2022-08-04T11:05:54.373Z,28.56
2022-08-04T11:06:54.373Z,28.66
2022-08-04T11:07:54.376Z,28.58
2022-08-04T11:08:54.376Z,28.58
2022-08-04T11:09:54.378Z,28.61
2022-08-04T11:10:54.380Z,28.54
2022-08-04T11:12:01.406Z,28.59
2022-08-04T11:12:54.379Z,28.55
2022-08-04T11:13:54.383Z,28.52
2022-08-04T11:14:54.384Z,28.58
2022-08-04T11:15:54.387Z,28.61
2022-08-04T11:16:54.386Z,28.59
2022-08-04T11:17:54.387Z,28.52
2022-08-04T11:18:54.391Z,28.55
2022-08-04T11:20:03.432Z,28.56
2022-08-04T11:20:54.396Z,28.59
2022-08-04T11:21:54.403Z,28.56
2022-08-04T11:22:54.395Z,28.55
2022-08-04T11:23:54.397Z,28.62
2022-08-04T11:24:54.396Z,28.66
2022-08-04T11:25:54.397Z,28.56
2022-08-04T11:26:54.399Z,28.62
2022-08-04T11:27:54.403Z,28.67
2022-08-04T11:29:04.128Z,28.52
2022-08-04T11:29:54.402Z,28.58
2022-08-04T11:30:54.405Z,28.61
2022-08-04T11:31:54.406Z,28.66
2022-08-04T11:32:54.405Z,28.64
2022-08-04T11:33:54.410Z,28.66
2022-08-04T11:34:54.411Z,28.58
2022-08-04T11:35:54.412Z,28.56
2022-08-04T11:36:54.413Z,28.61
2022-08-04T11:37:54.422Z,28.64
2022-08-04T11:38:54.494Z,28.55
2022-08-04T11:39:54.418Z,28.64
2022-08-04T11:41:02.737Z,28.61
2022-08-04T11:41:54.420Z,28.59
2022-08-04T11:42:54.419Z,28.61
2022-08-04T11:44:02.701Z,28.64
2022-08-04T11:44:54.421Z,28.62
2022-08-04T11:45:54.423Z,28.58
2022-08-04T11:46:54.426Z,28.52
2022-08-04T11:47:54.429Z,28.59
2022-08-04T11:48:54.425Z,28.56
2022-08-04T11:49:56.980Z,28.61
2022-08-04T11:50:54.429Z,28.56
2022-08-04T11:51:54.432Z,28.56
2022-08-04T11:52:54.437Z,28.59
2022-08-04T11:53:54.435Z,28.56
2022-08-04T11:54:54.592Z,28.56
2022-08-04T11:56:07.891Z,28.58
2022-08-04T11:56:54.436Z,28.58
2022-08-04T11:57:54.563Z,28.56
2022-08-04T11:58:54.440Z,28.62
2022-08-04T11:59:54.441Z,28.64
2022-08-04T12:00:54.441Z,28.56
2022-08-04T12:01:54.488Z,28.66
2022-08-04T12:02:54.444Z,28.71
2022-08-04T12:04:00.452Z,28.70
2022-08-04T12:04:54.446Z,28.67
2022-08-04T12:05:54.448Z,28.61
2022-08-04T12:07:15.104Z,28.59
2022-08-04T12:07:54.453Z,28.59
2022-08-04T12:08:54.452Z,28.67
2022-08-04T12:09:54.455Z,28.67
2022-08-04T12:10:54.462Z,28.62
2022-08-04T12:11:54.458Z,28.56
2022-08-04T12:12:54.457Z,28.66
2022-08-04T12:13:58.733Z,28.62
2022-08-04T12:14:54.460Z,28.66
2022-08-04T12:15:54.465Z,28.66
2022-08-04T12:16:54.463Z,28.62
2022-08-04T12:17:54.473Z,28.73
2022-08-04T12:18:54.465Z,28.66
2022-08-04T12:20:03.800Z,28.62
2022-08-04T12:20:54.467Z,28.66
2022-08-04T12:21:56.817Z,28.59
2022-08-04T12:22:54.472Z,28.66
2022-08-04T12:24:00.477Z,28.68
2022-08-04T12:24:54.473Z,28.64
2022-08-04T12:25:54.478Z,28.68
2022-08-04T12:26:54.475Z,28.61
2022-08-04T12:27:54.477Z,28.62
2022-08-04T12:29:09.464Z,28.61
2022-08-04T12:30:59.876Z,28.61
2022-08-04T12:31:01.161Z,28.70
2022-08-04T12:31:54.483Z,28.66
2022-08-04T12:32:54.481Z,28.76
2022-08-04T12:34:04.362Z,28.76
2022-08-04T12:34:54.486Z,28.58
2022-08-04T12:36:03.022Z,28.71
2022-08-04T12:36:54.489Z,28.71
2022-08-04T12:37:54.490Z,28.68
2022-08-04T12:38:54.530Z,28.64
2022-08-04T12:40:29.235Z,28.58
2022-08-04T12:40:54.493Z,28.68
2022-08-04T12:41:54.493Z,28.70
2022-08-04T12:42:56.202Z,28.61
2022-08-04T12:43:54.496Z,28.62
2022-08-04T12:44:54.498Z,28.62
2022-08-04T12:45:54.500Z,28.70
2022-08-04T12:46:54.502Z,28.61
2022-08-04T12:47:54.503Z,28.64
2022-08-04T12:48:54.505Z,28.58
2022-08-04T12:50:00.557Z,28.68
2022-08-04T12:50:54.507Z,28.61
2022-08-04T12:52:06.237Z,28.67
2022-08-04T12:53:03.538Z,28.67